Time;durP1;ratioP1;P1;durP2;ratioP2;P2;SDS_P1;SDS_P2;PMS_P1;PMS_P2;Temp;Humidity;BMP_temperature;BMP_pressure;BME280_temperature;BME280_humidity;BME280_pressure;Samples;Min_cycle;Max_cycle;Signal;HPM_P1;HPM_P2
2022/11/06 00:00:17;;;;;;;11.82;7.03;;;10.50;99.90;;;;;;4976305;28;20038;-71
2022/11/06 00:02:43;;;;;;;12.55;6.97;;;10.40;99.90;;;;;;4975911;28;20045;-70
2022/11/06 00:07:53;;;;;;;8.23;6.20;;;10.40;99.90;;;;;;4958807;28;20085;-71
2022/11/06 00:10:19;;;;;;;15.93;6.38;;;10.40;99.90;;;;;;4976108;28;20145;-71
2022/11/06 00:12:45;;;;;;;9.88;6.07;;;10.40;99.90;;;;;;4975883;28;20097;-71
2022/11/06 00:15:11;;;;;;;9.23;5.72;;;10.30;99.90;;;;;;4976042;28;20101;-71
2022/11/06 00:17:36;;;;;;;9.38;6.50;;;10.40;99.90;;;;;;4976086;28;20042;-71
2022/11/06 00:20:04;;;;;;;13.60;6.80;;;10.40;99.90;;;;;;4976118;28;20085;-71
2022/11/06 00:22:35;;;;;;;10.52;6.55;;;10.30;99.90;;;;;;4958521;28;20401;-71
2022/11/06 00:25:01;;;;;;;12.32;6.55;;;10.40;99.90;;;;;;4975973;28;20035;-71
2022/11/06 00:27:27;;;;;;;16.33;7.78;;;10.40;99.90;;;;;;4975880;28;20050;-71
2022/11/06 00:29:52;;;;;;;10.48;6.55;;;10.30;99.90;;;;;;4975604;28;20039;-71
2022/11/06 00:32:18;;;;;;;23.45;7.47;;;10.40;99.90;;;;;;4975562;28;20404;-70
2022/11/06 00:34:43;;;;;;;11.25;7.28;;;10.30;99.90;;;;;;4975738;28;20031;-71
2022/11/06 00:37:09;;;;;;;10.55;6.55;;;10.30;99.90;;;;;;4958287;28;20039;-71
2022/11/06 00:39:34;;;;;;;12.45;7.32;;;10.30;99.90;;;;;;4975413;28;20039;-71
2022/11/06 00:42:00;;;;;;;11.90;7.15;;;10.20;99.90;;;;;;4975204;28;20039;-70
2022/11/06 00:44:26;;;;;;;16.33;8.23;;;10.10;99.90;;;;;;4975126;28;20035;-71
2022/11/06 00:46:51;;;;;;;15.35;8.98;;;10.10;99.90;;;;;;4975456;28;20057;-71
2022/11/06 00:49:17;;;;;;;11.50;8.00;;;10.20;99.90;;;;;;4975479;28;20043;-71
2022/11/06 00:51:42;;;;;;;15.27;8.68;;;10.00;99.90;;;;;;4975461;28;20039;-71
2022/11/06 00:54:12;;;;;;;15.93;9.73;;;10.00;99.90;;;;;;4975186;28;20042;-71
2022/11/06 00:56:38;;;;;;;14.80;9.30;;;10.20;99.90;;;;;;4975256;28;20035;-71
2022/11/06 00:59:05;;;;;;;12.73;8.85;;;10.10;99.90;;;;;;4975021;28;20042;-71
2022/11/06 01:01:36;;;;;;;14.80;8.25;;;10.10;99.90;;;;;;4975184;28;20492;-71
2022/11/06 01:04:09;;;;;;;13.85;8.93;;;10.00;99.90;;;;;;4974900;28;20042;-71
2022/11/06 01:06:38;;;;;;;15.93;9.20;;;10.00;99.90;;;;;;4975198;28;20462;-71
2022/11/06 01:09:05;;;;;;;15.30;9.27;;;10.00;99.90;;;;;;4957639;28;20050;-70
2022/11/06 01:11:33;;;;;;;14.15;8.82;;;10.00;99.90;;;;;;4974968;28;20493;-71
2022/11/06 01:14:00;;;;;;;16.10;10.25;;;9.90;99.90;;;;;;4974631;28;20126;-70
2022/11/06 01:16:26;;;;;;;13.38;9.27;;;10.10;99.90;;;;;;4974904;28;20509;-71
2022/11/06 01:18:53;;;;;;;16.83;9.80;;;10.10;99.90;;;;;;4957678;28;20039;-71
2022/11/06 01:21:22;;;;;;;15.75;9.02;;;9.90;99.90;;;;;;4974956;28;20046;-71
2022/11/06 01:24:01;;;;;;;15.57;9.45;;;10.00;99.90;;;;;;4974530;28;20113;-71
2022/11/06 01:26:27;;;;;;;14.95;9.75;;;10.00;99.90;;;;;;4974745;28;20393;-71
2022/11/06 01:28:53;;;;;;;13.10;9.15;;;9.80;99.90;;;;;;4974568;28;20497;-71
2022/11/06 01:31:22;;;;;;;13.68;8.43;;;10.00;99.90;;;;;;4974745;28;20046;-71
2022/11/06 01:33:48;;;;;;;16.70;8.88;;;9.90;99.90;;;;;;4974396;28;20038;-71
2022/11/06 01:36:16;;;;;;;13.98;9.40;;;10.00;99.90;;;;;;4974591;28;20034;-71
2022/11/06 01:38:44;;;;;;;16.33;9.65;;;9.80;99.90;;;;;;4974385;28;20477;-71
2022/11/06 01:41:13;;;;;;;16.38;9.63;;;10.00;99.90;;;;;;4974288;28;20129;-71
2022/11/06 01:43:49;;;;;;;14.18;9.70;;;9.90;99.90;;;;;;4956968;28;20042;-71
2022/11/06 01:46:17;;;;;;;12.98;9.25;;;9.90;99.90;;;;;;4957067;28;20042;-71
2022/11/06 01:48:47;;;;;;;19.13;9.80;;;9.90;99.90;;;;;;4974322;28;20121;-71
2022/11/06 01:51:13;;;;;;;21.33;10.52;;;9.90;99.90;;;;;;4974115;28;20046;-71
2022/11/06 01:53:40;;;;;;;15.88;10.52;;;10.00;99.90;;;;;;4973603;28;20070;-71
2022/11/06 01:56:08;;;;;;;13.48;9.40;;;10.00;99.90;;;;;;4974179;28;20560;-71
2022/11/06 01:58:37;;;;;;;13.82;9.98;;;9.80;99.90;;;;;;4973938;28;20043;-71
2022/11/06 02:01:03;;;;;;;16.23;9.73;;;9.90;99.90;;;;;;4974000;28;20101;-71
2022/11/06 02:03:29;;;;;;;18.55;9.77;;;9.80;99.90;;;;;;4973711;28;20436;-71
2022/11/06 02:05:56;;;;;;;14.05;10.52;;;9.80;99.90;;;;;;4974320;28;20042;-71
2022/11/06 02:08:23;;;;;;;13.48;9.38;;;9.80;99.90;;;;;;4956611;28;20046;-71
2022/11/06 02:10:49;;;;;;;17.48;10.30;;;9.80;99.90;;;;;;4973956;28;20046;-71
2022/11/06 02:13:26;;;;;;;15.95;11.32;;;9.70;99.90;;;;;;4973694;28;20117;-71
2022/11/06 02:16:19;;;;;;;17.25;10.88;;;9.90;99.90;;;;;;4956627;28;20658;-71
2022/11/06 02:19:00;;;;;;;13.30;10.52;;;9.80;99.90;;;;;;4956392;28;20047;-71
2022/11/06 02:21:53;;;;;;;17.75;10.10;;;9.80;99.90;;;;;;4956414;28;20050;-71
2022/11/06 02:24:54;;;;;;;15.18;10.27;;;9.90;99.90;;;;;;4973295;28;20125;-71
2022/11/06 02:27:23;;;;;;;17.05;11.07;;;9.90;99.90;;;;;;4973769;28;20173;-71
2022/11/06 02:30:05;;;;;;;20.10;10.75;;;9.70;99.90;;;;;;4973614;28;20082;-71
2022/11/06 02:32:49;;;;;;;17.73;12.63;;;9.90;99.90;;;;;;4973262;28;20045;-71
2022/11/06 02:35:22;;;;;;;17.88;11.68;;;9.80;99.90;;;;;;4973637;28;20066;-71
2022/11/06 02:37:52;;;;;;;17.02;11.57;;;9.80;99.90;;;;;;4973526;28;20100;-71
2022/11/06 02:40:21;;;;;;;20.25;11.25;;;9.90;99.90;;;;;;4956028;28;20477;-71
2022/11/06 02:42:51;;;;;;;16.25;11.35;;;9.80;99.90;;;;;;4955998;28;20038;-71
2022/11/06 02:45:18;;;;;;;17.48;10.93;;;9.90;99.90;;;;;;4973230;28;20042;-71
2022/11/06 02:47:48;;;;;;;17.85;11.40;;;9.70;99.90;;;;;;4955874;28;20043;-71
2022/11/06 02:50:31;;;;;;;18.55;12.07;;;9.90;99.90;;;;;;4973378;28;20043;-71
2022/11/06 02:53:01;;;;;;;22.15;11.70;;;9.90;99.90;;;;;;4955897;28;20382;-71
2022/11/06 02:55:40;;;;;;;21.65;12.13;;;9.60;99.90;;;;;;4973280;28;20039;-70
2022/11/06 02:58:11;;;;;;;16.67;12.13;;;9.80;99.90;;;;;;4973230;28;20049;-70
2022/11/06 03:00:39;;;;;;;17.73;12.18;;;9.80;99.90;;;;;;4973532;28;20043;-70
2022/11/06 03:03:18;;;;;;;21.85;12.55;;;9.90;99.90;;;;;;4973000;28;20043;-70
2022/11/06 03:06:21;;;;;;;17.45;12.07;;;9.90;99.90;;;;;;4973147;28;20109;-70
2022/11/06 03:08:57;;;;;;;22.40;12.50;;;9.80;99.90;;;;;;4952010;28;20047;-70
2022/11/06 03:11:29;;;;;;;18.42;13.13;;;9.80;99.90;;;;;;4973251;28;20045;-70
2022/11/06 03:14:21;;;;;;;21.27;13.10;;;9.70;99.90;;;;;;4972709;28;20045;-70
2022/11/06 03:16:59;;;;;;;20.75;12.20;;;9.90;99.90;;;;;;4973060;28;20049;-70
2022/11/06 03:19:33;;;;;;;17.88;12.45;;;9.80;99.90;;;;;;4972945;28;20038;-70
2022/11/06 03:22:12;;;;;;;20.38;12.23;;;9.80;99.90;;;;;;4972840;28;20043;-71
2022/11/06 03:24:58;;;;;;;20.05;13.55;;;9.70;99.90;;;;;;4972627;28;20039;-71
2022/11/06 03:27:51;;;;;;;18.13;12.70;;;9.80;99.90;;;;;;4973008;28;20074;-71
2022/11/06 03:30:17;;;;;;;16.52;11.23;;;9.80;99.90;;;;;;4971724;28;20386;-71
2022/11/06 03:32:55;;;;;;;15.38;11.07;;;9.60;99.90;;;;;;4955088;28;20078;-71
2022/11/06 03:35:42;;;;;;;17.67;12.23;;;9.80;99.90;;;;;;4972657;28;20046;-71
2022/11/06 03:38:22;;;;;;;18.85;11.88;;;9.80;99.90;;;;;;4972760;28;20433;-71
2022/11/06 03:40:52;;;;;;;19.15;11.75;;;9.60;99.90;;;;;;4972569;28;20109;-71
2022/11/06 03:43:21;;;;;;;16.48;11.57;;;9.60;99.90;;;;;;4972401;28;20039;-70
2022/11/06 03:45:51;;;;;;;15.63;11.02;;;9.80;99.90;;;;;;4972555;28;20500;-71
2022/11/06 03:48:34;;;;;;;15.50;11.63;;;9.80;99.90;;;;;;4972788;28;20043;-71
2022/11/06 03:51:07;;;;;;;17.67;11.18;;;9.60;99.90;;;;;;4972701;28;20083;-71
2022/11/06 03:53:40;;;;;;;20.20;12.27;;;9.60;99.90;;;;;;4955001;28;20043;-71
2022/11/06 03:56:14;;;;;;;;;;;9.70;99.90;;;;;;4972826;28;20127;-70
2022/11/06 03:58:45;;;;;;;16.20;10.88;;;9.70;99.90;;;;;;4972588;28;19918;-70
2022/11/06 04:01:13;;;;;;;14.23;10.27;;;9.70;99.90;;;;;;4972528;28;20042;-70
2022/11/06 04:03:48;;;;;;;14.63;10.60;;;9.70;99.90;;;;;;4972416;28;20077;-70
2022/11/06 04:06:19;;;;;;;15.52;11.00;;;9.50;99.90;;;;;;4972437;28;20114;-71
2022/11/06 04:14:22;;;;;;;18.20;11.73;;;9.60;99.90;;;;;;4954856;28;20055;-70
2022/11/06 04:16:52;;;;;;;18.30;11.43;;;9.60;99.90;;;;;;4972441;28;20043;-70
2022/11/06 04:19:20;;;;;;;17.23;10.48;;;9.60;99.90;;;;;;4942757;28;20053;-70
2022/11/06 04:21:55;;;;;;;16.25;10.82;;;9.60;99.90;;;;;;4958980;28;20042;-70
2022/11/06 04:27:52;;;;;;;16.00;10.40;;;9.50;99.90;;;;;;4957905;28;20053;-71
2022/11/06 04:30:18;;;;;;;17.77;10.23;;;9.70;99.90;;;;;;4976018;28;20050;-71
2022/11/06 04:33:10;;;;;;;18.50;10.30;;;9.50;99.90;;;;;;4975336;28;20043;-71
2022/11/06 04:36:12;;;;;;;13.35;9.13;;;9.50;99.90;;;;;;4975610;28;20043;-71
2022/11/06 04:39:05;;;;;;;14.30;9.43;;;9.70;99.90;;;;;;4975685;28;20043;-71
2022/11/06 04:41:44;;;;;;;11.33;8.37;;;9.70;99.90;;;;;;4975459;28;20505;-71
2022/11/06 04:44:25;;;;;;;23.38;9.68;;;9.70;99.90;;;;;;4975150;28;20053;-71
2022/11/06 04:46:59;;;;;;;14.30;9.82;;;9.60;99.90;;;;;;4975531;28;20042;-71
2022/11/06 04:49:28;;;;;;;19.95;10.77;;;9.80;99.90;;;;;;4975484;28;20460;-71
2022/11/06 04:51:54;;;;;;;18.80;9.35;;;9.60;99.90;;;;;;4958058;28;20054;-71
2022/11/06 04:54:21;;;;;;;14.15;9.23;;;9.80;99.90;;;;;;4974975;28;20073;-71
2022/11/06 04:56:47;;;;;;;16.98;9.88;;;9.80;99.90;;;;;;4958200;28;20544;-71
2022/11/06 04:59:15;;;;;;;14.25;9.48;;;9.60;99.90;;;;;;4975182;28;20043;-71
2022/11/06 05:01:40;;;;;;;16.75;9.50;;;9.60;99.90;;;;;;4975407;28;20039;-71
2022/11/06 05:04:06;;;;;;;14.25;10.02;;;9.80;99.90;;;;;;4974830;28;20035;-71
2022/11/06 05:06:31;;;;;;;16.40;9.77;;;9.80;99.90;;;;;;4975121;28;20039;-71
2022/11/06 05:08:57;;;;;;;14.38;8.75;;;9.80;99.90;;;;;;4974890;28;20043;-71
2022/11/06 05:11:23;;;;;;;12.35;8.95;;;9.70;99.90;;;;;;4975171;28;20046;-71
2022/11/06 05:13:49;;;;;;;18.33;10.07;;;9.90;99.90;;;;;;4974898;28;20030;-71
2022/11/06 05:16:15;;;;;;;14.05;8.60;;;9.70;99.90;;;;;;4975059;28;20043;-71
2022/11/06 05:18:40;;;;;;;14.25;9.27;;;9.80;99.90;;;;;;4974888;28;20046;-71
2022/11/06 05:23:50;;;;;;;17.20;9.10;;;9.80;99.90;;;;;;4974719;28;20078;-71
2022/11/06 05:26:15;;;;;;;13.85;8.38;;;9.60;99.90;;;;;;4974937;28;20474;-71
2022/11/06 05:28:41;;;;;;;15.10;8.20;;;9.60;99.90;;;;;;4956271;28;20118;-71
2022/11/06 05:31:07;;;;;;;15.05;8.85;;;9.70;99.90;;;;;;4974659;28;20039;-71
2022/11/06 05:33:32;;;;;;;14.60;9.25;;;9.60;99.90;;;;;;4974432;28;20138;-71
2022/11/06 05:36:05;;;;;;;12.50;8.20;;;9.80;99.90;;;;;;4974630;28;20058;-71
2022/11/06 05:38:31;;;;;;;14.90;7.90;;;9.80;99.90;;;;;;4974429;28;20155;-71
2022/11/06 05:40:57;;;;;;;10.40;8.18;;;9.60;99.90;;;;;;4974428;28;20609;-71
2022/11/06 05:43:23;;;;;;;12.02;7.63;;;9.60;99.90;;;;;;4974266;28;20489;-71
2022/11/06 05:45:49;;;;;;;13.93;7.07;;;9.80;99.90;;;;;;4974497;28;20038;-71
2022/11/06 05:48:14;;;;;;;14.68;7.43;;;9.70;99.90;;;;;;4974446;28;20074;-71
2022/11/06 05:50:40;;;;;;;16.83;7.20;;;9.80;99.90;;;;;;4974219;28;20452;-71
2022/11/06 05:53:05;;;;;;;13.05;7.68;;;9.60;99.90;;;;;;4974099;28;20049;-71
2022/11/06 05:55:31;;;;;;;16.13;7.85;;;9.70;99.90;;;;;;4974264;28;20045;-71
2022/11/06 05:57:56;;;;;;;12.40;7.35;;;9.70;99.90;;;;;;4974216;28;20043;-71
2022/11/06 06:00:22;;;;;;;12.98;7.43;;;9.80;99.90;;;;;;4974040;28;20046;-71
2022/11/06 06:02:47;;;;;;;10.70;7.68;;;9.70;99.90;;;;;;4956459;28;20057;-71
2022/11/06 06:05:13;;;;;;;16.98;7.55;;;9.60;99.90;;;;;;4973998;28;20413;-71
2022/11/06 06:07:39;;;;;;;19.13;8.25;;;9.70;99.90;;;;;;4956620;28;20042;-71
2022/11/06 06:10:06;;;;;;;16.13;7.88;;;9.70;99.90;;;;;;4956528;28;20049;-71
2022/11/06 06:12:32;;;;;;;17.02;8.70;;;9.80;99.90;;;;;;4956289;28;20046;-71
2022/11/06 06:14:57;;;;;;;13.95;7.28;;;9.70;99.90;;;;;;4956592;28;20097;-71
2022/11/06 06:17:23;;;;;;;13.52;7.20;;;9.80;99.90;;;;;;4973735;28;20374;-71
2022/11/06 06:19:48;;;;;;;14.63;6.85;;;9.80;99.90;;;;;;4956425;28;20042;-71
2022/11/06 06:22:14;;;;;;;15.68;7.65;;;9.60;99.90;;;;;;4956238;28;20043;-71
2022/11/06 06:24:40;;;;;;;13.23;7.25;;;9.80;99.90;;;;;;4956233;28;20054;-71
2022/11/06 06:27:06;;;;;;;18.52;7.22;;;9.60;99.90;;;;;;4973789;28;20489;-71
2022/11/06 06:29:31;;;;;;;13.23;8.40;;;9.80;99.90;;;;;;4973624;28;20122;-71
2022/11/06 06:31:57;;;;;;;15.00;6.75;;;9.80;99.90;;;;;;4973570;28;20512;-71
2022/11/06 06:34:22;;;;;;;12.25;6.30;;;9.80;99.90;;;;;;4955779;28;20085;-71
2022/11/06 06:36:50;;;;;;;7.75;5.93;;;9.60;99.90;;;;;;4973495;28;20051;-71
2022/11/06 06:39:16;;;;;;;13.50;6.43;;;9.80;99.90;;;;;;4973396;28;20053;-71
2022/11/06 06:41:41;;;;;;;14.05;5.97;;;9.80;99.90;;;;;;4973288;28;20039;-71
2022/11/06 06:44:07;;;;;;;9.65;5.40;;;9.70;99.90;;;;;;4973016;28;20039;-71
2022/11/06 06:46:32;;;;;;;10.75;6.35;;;9.80;99.90;;;;;;4973373;28;20097;-71
2022/11/06 06:48:58;;;;;;;10.25;5.88;;;9.70;99.90;;;;;;4973126;28;20101;-71
2022/11/06 06:51:23;;;;;;;10.95;5.63;;;9.80;99.90;;;;;;4973386;28;20129;-71
2022/11/06 06:53:49;;;;;;;12.90;5.97;;;9.80;99.90;;;;;;4972953;28;20061;-71
2022/11/06 06:56:14;;;;;;;15.75;6.00;;;9.70;99.90;;;;;;4973305;28;20501;-71
2022/11/06 06:58:40;;;;;;;13.43;6.05;;;9.90;99.90;;;;;;4973205;28;20667;-71
2022/11/06 07:01:09;;;;;;;10.02;6.03;;;9.70;99.90;;;;;;4973050;28;20039;-71
2022/11/06 07:03:36;;;;;;;18.30;6.20;;;9.90;99.90;;;;;;4972558;28;20038;-71
2022/11/06 07:06:02;;;;;;;14.65;6.43;;;9.90;99.90;;;;;;4973061;28;20072;-71
2022/11/06 07:08:28;;;;;;;13.07;5.85;;;9.90;99.90;;;;;;4972885;28;20049;-71
2022/11/06 07:11:02;;;;;;;12.93;6.28;;;10.00;99.90;;;;;;4939864;28;20089;-71
2022/11/06 07:13:27;;;;;;;;;;;10.00;99.90;;;;;;4955924;28;20051;-71
2022/11/06 07:15:53;;;;;;;10.25;5.15;;;10.00;99.90;;;;;;4972850;28;20001;-71
2022/11/06 07:18:18;;;;;;;10.93;4.82;;;9.90;99.90;;;;;;4972640;28;20035;-71
2022/11/06 07:20:44;;;;;;;13.57;5.30;;;9.90;99.90;;;;;;4972762;28;20155;-71
2022/11/06 07:23:09;;;;;;;9.65;5.15;;;10.00;99.90;;;;;;4972727;28;20039;-71
2022/11/06 07:25:36;;;;;;;11.73;5.22;;;10.00;99.90;;;;;;4973016;28;20049;-71
2022/11/06 07:28:06;;;;;;;11.25;4.78;;;10.10;99.90;;;;;;4972829;28;20050;-71
2022/11/06 07:30:35;;;;;;;6.28;4.45;;;10.10;99.90;;;;;;4972709;28;20593;-71
2022/11/06 07:33:04;;;;;;;14.82;4.55;;;10.30;99.90;;;;;;4972459;28;20145;-71
2022/11/06 07:35:32;;;;;;;15.25;6.82;;;10.20;99.90;;;;;;4972897;28;20089;-71
2022/11/06 07:37:57;;;;;;;10.93;4.60;;;10.20;99.90;;;;;;4972760;28;20039;-71
2022/11/06 07:40:23;;;;;;;9.82;4.65;;;10.30;99.90;;;;;;4972621;28;20093;-71
2022/11/06 07:42:49;;;;;;;7.65;4.68;;;10.10;99.90;;;;;;4972426;28;20501;-71
2022/11/06 07:45:14;;;;;;;8.93;3.97;;;10.30;99.90;;;;;;4972564;28;20039;-71
2022/11/06 07:47:40;;;;;;;12.02;4.25;;;10.40;99.90;;;;;;4972879;28;20125;-71
2022/11/06 07:50:06;;;;;;;12.52;4.15;;;10.40;99.90;;;;;;4955126;28;20039;-71
2022/11/06 07:52:32;;;;;;;18.05;4.47;;;10.50;99.90;;;;;;4973661;28;20042;-71
2022/11/06 07:54:58;;;;;;;16.33;4.05;;;10.50;99.90;;;;;;4976369;28;20065;-71
2022/11/06 07:57:23;;;;;;;11.52;4.40;;;10.50;99.90;;;;;;4959105;28;20039;-71
2022/11/06 07:59:49;;;;;;;10.30;4.20;;;10.70;99.90;;;;;;4976221;28;20176;-71
2022/11/06 08:02:16;;;;;;;13.13;4.82;;;10.60;99.90;;;;;;4976341;28;20039;-71
2022/11/06 08:04:41;;;;;;;14.02;4.93;;;10.50;99.90;;;;;;4976270;28;20043;-70
2022/11/06 08:07:07;;;;;;;6.65;3.63;;;10.60;99.90;;;;;;4976128;28;20046;-71
2022/11/06 08:09:32;;;;;;;10.52;3.92;;;10.70;99.90;;;;;;4976195;28;20043;-71
2022/11/06 08:11:58;;;;;;;9.60;3.55;;;10.70;99.90;;;;;;4976185;28;20049;-71
2022/11/06 08:14:23;;;;;;;11.35;4.60;;;10.60;99.90;;;;;;4975874;28;20043;-72
2022/11/06 08:16:49;;;;;;;14.57;4.50;;;10.60;99.90;;;;;;4976121;28;20043;-71
2022/11/06 08:19:14;;;;;;;13.38;4.65;;;10.40;99.90;;;;;;4979177;28;20416;-71
2022/11/06 08:21:40;;;;;;;9.60;4.00;;;10.40;99.90;;;;;;4985987;28;20035;-71
2022/11/06 08:24:06;;;;;;;10.27;3.60;;;10.30;99.90;;;;;;4985026;28;20408;-71
2022/11/06 08:26:32;;;;;;;10.13;4.53;;;10.30;99.90;;;;;;4995404;28;20038;-71
2022/11/06 08:28:57;;;;;;;7.78;3.47;;;10.30;99.90;;;;;;4995093;28;20047;-71
2022/11/06 08:31:23;;;;;;;7.40;3.45;;;10.30;99.90;;;;;;4995275;28;20429;-71
2022/11/06 08:33:48;;;;;;;9.00;3.50;;;10.50;99.90;;;;;;4980775;28;20072;-71
2022/11/06 08:36:14;;;;;;;7.50;3.55;;;10.50;99.90;;;;;;4983398;28;20170;-71
2022/11/06 08:38:40;;;;;;;8.18;3.58;;;10.40;99.90;;;;;;4989546;28;20073;-71
2022/11/06 08:41:11;;;;;;;11.90;4.22;;;10.30;99.90;;;;;;4994847;28;20070;-71
2022/11/06 08:43:37;;;;;;;8.30;3.55;;;10.50;99.90;;;;;;4994665;28;20050;-71
2022/11/06 08:46:05;;;;;;;11.48;3.20;;;10.30;99.90;;;;;;4995072;28;20053;-71
2022/11/06 08:48:31;;;;;;;9.55;3.55;;;10.40;99.90;;;;;;4995065;28;20046;-71
2022/11/06 08:50:56;;;;;;;6.75;3.70;;;10.40;99.90;;;;;;4994875;28;20054;-71
2022/11/06 08:53:22;;;;;;;9.27;3.65;;;10.30;99.90;;;;;;4994644;28;20042;-71
2022/11/06 08:55:48;;;;;;;8.60;3.40;;;10.50;99.90;;;;;;4994892;28;20121;-71
2022/11/06 08:58:13;;;;;;;12.07;3.60;;;10.50;99.90;;;;;;4994635;28;20038;-71
2022/11/06 09:00:39;;;;;;;10.13;3.72;;;10.40;99.90;;;;;;4990255;28;20042;-71
2022/11/06 09:03:08;;;;;;;7.13;3.58;;;10.40;99.90;;;;;;4974318;28;20401;-71
2022/11/06 09:05:34;;;;;;;7.63;3.58;;;10.50;99.90;;;;;;4957524;28;20412;-71
2022/11/06 09:08:00;;;;;;;6.60;3.55;;;10.60;99.90;;;;;;4974819;28;20049;-71
2022/11/06 09:10:27;;;;;;;9.40;3.22;;;10.40;99.90;;;;;;4974762;28;20045;-71
2022/11/06 09:12:53;;;;;;;8.23;3.30;;;10.40;99.90;;;;;;4941003;28;20035;-71
2022/11/06 09:15:19;;;;;;;5.80;2.90;;;10.50;99.90;;;;;;4957559;28;20097;-71
2022/11/06 09:17:49;;;;;;;9.48;4.30;;;10.40;99.90;;;;;;4974692;28;20097;-72
2022/11/06 09:20:16;;;;;;;5.28;3.15;;;10.60;99.90;;;;;;4974767;28;20046;-71
2022/11/06 09:22:42;;;;;;;6.72;3.40;;;10.60;99.90;;;;;;4956854;28;20516;-71
2022/11/06 09:25:08;;;;;;;8.10;3.17;;;10.70;99.90;;;;;;4974590;28;20071;-72
2022/11/06 09:27:42;;;;;;;6.50;3.40;;;10.70;99.90;;;;;;4957364;28;20058;-72
2022/11/06 09:30:09;;;;;;;6.95;3.05;;;10.60;99.90;;;;;;4957136;28;20056;-71
2022/11/06 09:32:34;;;;;;;10.00;3.53;;;10.60;99.90;;;;;;4974274;28;20053;-71
2022/11/06 09:35:00;;;;;;;6.88;2.85;;;10.70;99.90;;;;;;4974673;28;20505;-71
2022/11/06 09:37:25;;;;;;;7.35;3.22;;;10.70;99.90;;;;;;4965891;28;20030;-71
2022/11/06 09:39:51;;;;;;;10.30;3.30;;;10.90;99.90;;;;;;4998350;23;20054;-72
2022/11/06 09:42:28;;;;;;;8.95;3.83;;;10.80;99.90;;;;;;4993097;28;20035;-74
2022/11/06 09:45:07;;;;;;;8.52;3.05;;;10.90;99.90;;;;;;4976285;28;20049;-73
2022/11/06 09:47:38;;;;;;;7.38;3.03;;;10.90;99.90;;;;;;4993558;28;20057;-72
2022/11/06 09:50:10;;;;;;;6.57;2.95;;;10.90;99.90;;;;;;4993115;28;20046;-72
2022/11/06 09:52:58;;;;;;;8.17;2.90;;;11.10;99.90;;;;;;4976087;28;20053;-71
2022/11/06 09:55:34;;;;;;;9.55;3.47;;;11.10;99.90;;;;;;4976096;28;20042;-72
2022/11/06 09:58:18;;;;;;;7.18;3.00;;;11.30;99.90;;;;;;4993751;28;20500;-73
2022/11/06 10:00:44;;;;;;;9.57;2.97;;;11.30;99.90;;;;;;4976377;28;20515;-72
2022/11/06 10:03:25;;;;;;;12.27;3.65;;;11.40;99.90;;;;;;4976165;28;20042;-73
2022/11/06 10:05:52;;;;;;;8.02;2.80;;;11.40;99.90;;;;;;4993864;28;20038;-72
2022/11/06 10:08:29;;;;;;;5.90;2.60;;;11.50;99.90;;;;;;4968694;28;20042;-72
2022/11/06 10:11:13;;;;;;;6.13;2.80;;;11.40;99.90;;;;;;4985150;28;20034;-73
2022/11/06 10:13:51;;;;;;;7.70;2.70;;;11.50;99.90;;;;;;4975988;28;20066;-72
2022/11/06 10:16:53;;;;;;;9.73;2.70;;;11.60;99.90;;;;;;4975719;28;20073;-74
2022/11/06 10:19:48;;;;;;;12.38;2.50;;;11.50;99.90;;;;;;4993293;28;20512;-73
2022/11/06 10:22:16;;;;;;;7.80;2.38;;;11.50;99.90;;;;;;4992176;28;20053;-73
2022/11/06 10:24:56;;;;;;;7.00;2.75;;;11.80;99.90;;;;;;4975449;28;20042;-72
2022/11/06 10:27:47;;;;;;;11.02;3.15;;;11.80;99.90;;;;;;4993121;28;20035;-73
2022/11/06 10:30:16;;;;;;;7.13;2.90;;;11.80;99.90;;;;;;4975271;28;20054;-73
2022/11/06 10:33:03;;;;;;;7.20;2.55;;;11.80;99.90;;;;;;4974658;28;20200;-72
2022/11/06 10:35:47;;;;;;;8.85;2.53;;;11.90;99.90;;;;;;4980129;28;20046;-72
2022/11/06 10:38:17;;;;;;;6.63;2.13;;;12.00;99.90;;;;;;4974239;28;20034;-71
2022/11/06 10:40:47;;;;;;;5.40;2.22;;;12.00;99.90;;;;;;4955902;28;20113;-72
2022/11/06 10:43:54;;;;;;;7.55;2.33;;;12.10;99.90;;;;;;4972887;28;20036;-72
2022/11/06 10:46:34;;;;;;;7.05;2.15;;;11.90;99.90;;;;;;4913340;29;20051;-71
2022/11/06 10:49:10;;;;;;;4.30;1.92;;;12.10;99.90;;;;;;4939239;28;20093;-72
2022/11/06 10:52:17;;;;;;;5.72;2.28;;;12.10;99.90;;;;;;4973045;28;20038;-72
2022/11/06 10:55:08;;;;;;;5.53;2.20;;;12.00;99.90;;;;;;4955550;28;20054;-73
2022/11/06 10:57:40;;;;;;;6.95;2.25;;;12.10;99.90;;;;;;4943013;28;20142;-73
2022/11/06 11:00:11;;;;;;;5.38;2.17;;;12.00;99.90;;;;;;4955695;28;20525;-72
2022/11/06 11:02:43;;;;;;;5.55;2.50;;;12.20;99.90;;;;;;4973064;28;20039;-73
2022/11/06 11:05:15;;;;;;;4.82;1.95;;;12.10;99.90;;;;;;4973437;28;20061;-73
2022/11/06 11:07:43;;;;;;;4.22;1.77;;;12.20;99.90;;;;;;4973350;28;20073;-73
2022/11/06 11:10:23;;;;;;;7.82;2.83;;;12.20;99.90;;;;;;4955769;28;20389;-73
2022/11/06 11:12:52;;;;;;;6.78;2.40;;;12.20;99.90;;;;;;4942073;28;20043;-73
2022/11/06 11:15:23;;;;;;;4.22;2.20;;;12.20;99.90;;;;;;4988526;28;20050;-72
2022/11/06 11:18:10;;;;;;;5.28;2.30;;;12.20;99.90;;;;;;4992197;28;20099;-73
2022/11/06 11:20:38;;;;;;;8.82;2.55;;;12.20;99.90;;;;;;4974607;28;20034;-72
2022/11/06 11:23:15;;;;;;;15.95;4.00;;;12.10;99.90;;;;;;4991694;28;20046;-72
2022/11/06 11:25:43;;;;;;;3.88;1.90;;;12.10;99.90;;;;;;4974551;28;20049;-72
2022/11/06 11:28:29;;;;;;;10.02;2.22;;;12.10;99.90;;;;;;4991229;28;20046;-73
2022/11/06 11:31:02;;;;;;;6.47;3.13;;;12.00;99.90;;;;;;4991749;28;20039;-72
2022/11/06 11:33:28;;;;;;;7.50;2.22;;;11.90;99.90;;;;;;4974221;28;20117;-72
2022/11/06 11:35:54;;;;;;;5.65;2.50;;;12.00;99.90;;;;;;4974639;28;20544;-72
2022/11/06 11:38:21;;;;;;;6.03;2.60;;;12.00;99.90;;;;;;4957825;28;20397;-73
2022/11/06 11:40:47;;;;;;;6.35;2.97;;;11.80;99.90;;;;;;4954913;28;20046;-73
2022/11/06 11:43:27;;;;;;;7.32;2.55;;;11.90;99.90;;;;;;4972076;28;20446;-73
2022/11/06 11:46:08;;;;;;;5.75;2.28;;;12.10;99.90;;;;;;4955382;28;20497;-74
2022/11/06 11:49:02;;;;;;;8.73;2.97;;;11.70;99.90;;;;;;4939086;28;20074;-74
2022/11/06 11:51:42;;;;;;;11.25;2.78;;;11.70;99.90;;;;;;4952826;28;20055;-72
2022/11/06 11:54:08;;;;;;;5.72;3.10;;;11.70;99.90;;;;;;4972265;28;20047;-73
2022/11/06 11:56:44;;;;;;;8.00;3.45;;;11.60;99.90;;;;;;4972410;28;20039;-72
2022/11/06 11:59:38;;;;;;;4.82;2.13;;;11.50;99.90;;;;;;4955018;28;20051;-73
2022/11/06 12:02:13;;;;;;;7.38;2.58;;;11.70;99.90;;;;;;4949673;28;20410;-74
2022/11/06 12:04:42;;;;;;;5.88;2.92;;;11.70;99.90;;;;;;4954896;28;20043;-72
2022/11/06 12:07:27;;;;;;;6.25;2.70;;;11.80;99.90;;;;;;4972218;28;20078;-72
2022/11/06 12:09:53;;;;;;;7.18;3.47;;;11.70;99.90;;;;;;4955268;28;20129;-73
2022/11/06 12:12:27;;;;;;;11.43;3.72;;;11.90;99.90;;;;;;4955026;28;20127;-72
2022/11/06 12:15:19;;;;;;;9.90;3.58;;;11.80;99.90;;;;;;4954974;28;20133;-74
2022/11/06 12:18:25;;;;;;;6.18;2.65;;;12.00;99.90;;;;;;4954750;28;20122;-72
2022/11/06 12:20:56;;;;;;;4.63;2.90;;;11.80;99.90;;;;;;4961525;28;20398;-73
2022/11/06 12:23:36;;;;;;;6.00;2.50;;;12.10;99.90;;;;;;4954463;28;20075;-73
2022/11/06 12:26:14;;;;;;;9.52;2.70;;;12.00;99.90;;;;;;4939254;28;20034;-72
2022/11/06 12:28:41;;;;;;;7.88;2.50;;;12.10;99.90;;;;;;4972362;28;20047;-73
2022/11/06 12:31:22;;;;;;;6.88;2.85;;;12.10;99.90;;;;;;4954722;28;20085;-72
2022/11/06 12:33:48;;;;;;;8.77;3.08;;;12.10;99.90;;;;;;4954468;28;20047;-74
2022/11/06 12:36:18;;;;;;;8.40;2.65;;;12.20;99.90;;;;;;4972102;28;20452;-73
2022/11/06 12:39:04;;;;;;;4.07;1.98;;;12.40;99.90;;;;;;4940972;28;20130;-75
2022/11/06 12:41:37;;;;;;;9.90;2.97;;;12.60;99.90;;;;;;4958125;28;20035;-73
2022/11/06 12:44:10;;;;;;;3.65;2.13;;;12.50;99.90;;;;;;4975398;28;20053;-72
2022/11/06 12:46:41;;;;;;;7.90;3.53;;;12.70;99.90;;;;;;4975543;28;20047;-72
2022/11/06 12:49:13;;;;;;;7.20;2.50;;;12.70;99.90;;;;;;4957965;28;20078;-72
2022/11/06 12:52:00;;;;;;;7.63;2.70;;;13.00;99.90;;;;;;4957493;28;20035;-72
2022/11/06 12:54:50;;;;;;;8.38;3.63;;;13.00;99.90;;;;;;4958330;28;20464;-72
2022/11/06 12:57:34;;;;;;;10.00;3.30;;;12.90;99.90;;;;;;4985966;28;20046;-72
2022/11/06 13:00:19;;;;;;;4.53;2.00;;;13.00;99.90;;;;;;4977098;28;20053;-73
2022/11/06 13:02:53;;;;;;;7.00;2.17;;;13.00;99.90;;;;;;4960775;28;20046;-73
2022/11/06 13:05:25;;;;;;;11.18;2.05;;;13.00;99.90;;;;;;4994633;28;20396;-72
2022/11/06 13:08:13;;;;;;;6.40;1.58;;;12.80;99.90;;;;;;4970200;28;20097;-73
2022/11/06 13:10:53;;;;;;;6.05;1.83;;;12.80;99.90;;;;;;4966248;28;20042;-73
2022/11/06 13:13:43;;;;;;;6.03;1.70;;;12.70;99.90;;;;;;4976628;28;20108;-73
2022/11/06 13:16:23;;;;;;;5.60;1.50;;;12.60;99.90;;;;;;4960818;28;20050;-72
2022/11/06 13:19:00;;;;;;;3.60;1.95;;;12.60;99.90;;;;;;4976648;28;20070;-72